KAST/AST METAR and TAF weather

Enter ICAO airport designator
Station Type Date Time Source
KAST METAR 2019/05/26 23:55 UTC NOAA

KAST 262355Z AUTO 30007KT 10SM CLR 17/12 A2983 RMK AO2 SLP102 T01670117 10200 20161 50001


Station Type Date Time Source
KAST Decoded METAR 2019/05/26 23:55 UTC NOAA

PORT OF ASTORIA AIRPORT, OR, United States (KAST) 46-09N 123-53W 3M
May 26, 2019 - 07:55 PM EDT / 2019.05.26 2355 UTC
Wind: from the WNW (300 degrees) at 8 MPH (7 KT):0
Visibility: 10 mile(s):0
Sky conditions: clear
Temperature: 62.1 F (16.7 C)
Dew Point: 53.1 F (11.7 C)
Relative Humidity: 72%
Pressure (altimeter): 29.83 in. Hg (1010 hPa)
Pressure tendency: 0.00 inches (0.1 hPa) higher than three hours ago
ob: KAST 262355Z AUTO 30007KT 10SM CLR 17/12 A2983 RMK AO2 SLP102 T01670117 10200 20161 50001
cycle: 0

Station Type Date Time Source
KAST TAF 2019/05/26 21:39 UTC NOAA

TAF
AMD KAST 262036Z 2621/2718 33007KT P6SM FEW025 SCT100
FM270300 28005KT P6SM SCT040
FM270900 22002KT 6SM BR OVC015
FM271400 20003KT 2SM BR OVC010

Example: see airport list